createdAt,value
2018-04-28T00:00:03.566Z,99.99
2018-04-28T00:01:03.653Z,99.99
2018-04-28T00:02:03.565Z,99.99
2018-04-28T00:03:03.644Z,99.99
2018-04-28T00:04:03.483Z,99.99
2018-04-28T00:05:03.476Z,99.99
2018-04-28T00:06:03.439Z,99.99
2018-04-28T00:07:03.404Z,99.99
2018-04-28T00:08:03.475Z,99.99
2018-04-28T00:09:03.511Z,99.99
2018-04-28T00:10:03.517Z,99.99
2018-04-28T00:11:03.346Z,99.99
2018-04-28T00:12:03.290Z,99.99
2018-04-28T00:13:03.259Z,99.99
2018-04-28T00:14:03.340Z,99.99
2018-04-28T00:15:03.784Z,99.70
2018-04-28T00:16:03.179Z,99.80
2018-04-28T00:17:03.167Z,99.99
2018-04-28T00:18:03.152Z,99.99
2018-04-28T00:19:03.218Z,99.90
2018-04-28T00:20:03.116Z,99.32
2018-04-28T00:21:03.073Z,98.63
2018-04-28T00:22:03.068Z,99.41
2018-04-28T00:23:03.123Z,98.68
2018-04-28T00:24:03.048Z,98.68
2018-04-28T00:25:03.000Z,98.68
2018-04-28T00:26:02.979Z,98.49
2018-04-28T00:27:02.913Z,98.49
2018-04-28T00:28:02.904Z,98.49
2018-04-28T00:29:02.901Z,98.58
2018-04-28T00:30:03.047Z,98.49
2018-04-28T00:31:02.850Z,97.71
2018-04-28T00:32:02.789Z,97.81
2018-04-28T00:33:02.775Z,97.42
2018-04-28T00:34:03.296Z,97.81
2018-04-28T00:35:02.880Z,98.20
2018-04-28T00:36:02.710Z,98.39
2018-04-28T00:37:02.688Z,98.49
2018-04-28T00:38:02.683Z,98.88
2018-04-28T00:39:03.164Z,98.39
2018-04-28T00:40:02.614Z,97.61
2018-04-28T00:41:02.753Z,98.30
2018-04-28T00:42:02.570Z,97.81
2018-04-28T00:43:02.548Z,97.52
2018-04-28T00:44:02.545Z,98.10
2018-04-28T00:45:02.478Z,98.49
2018-04-28T00:46:02.484Z,98.39
2018-04-28T00:47:02.535Z,98.39
2018-04-28T00:48:02.426Z,97.61
2018-04-28T00:49:02.391Z,97.71
2018-04-28T00:50:02.377Z,97.81
2018-04-28T00:51:02.333Z,97.71
2018-04-28T00:52:02.348Z,97.71
2018-04-28T00:53:02.268Z,98.39
2018-04-28T00:54:02.242Z,96.74
2018-04-28T00:55:02.226Z,97.13
2018-04-28T00:56:02.189Z,97.33
2018-04-28T00:57:02.865Z,96.94
2018-04-28T00:58:02.161Z,97.03
2018-04-28T00:59:02.683Z,97.71
2018-04-28T01:00:02.117Z,97.66
2018-04-28T01:01:02.107Z,97.13
2018-04-28T01:02:02.659Z,96.84
2018-04-28T01:03:02.017Z,96.41
2018-04-28T01:04:02.047Z,97.52
2018-04-28T01:05:01.989Z,97.03
2018-04-28T01:06:01.998Z,96.94
2018-04-28T01:07:01.969Z,96.06
2018-04-28T01:08:02.021Z,97.13
2018-04-28T01:09:01.938Z,96.45
2018-04-28T01:10:01.859Z,96.41
2018-04-28T01:11:01.859Z,96.60
2018-04-28T01:12:01.808Z,96.60
2018-04-28T01:13:01.895Z,95.92
2018-04-28T01:14:01.751Z,94.70
2018-04-28T01:15:01.792Z,94.70
2018-04-28T01:16:02.219Z,93.98
2018-04-28T01:17:01.687Z,94.17
2018-04-28T01:18:02.300Z,94.07
2018-04-28T01:19:01.621Z,94.27
2018-04-28T01:20:01.596Z,93.98
2018-04-28T01:21:01.581Z,93.69
2018-04-28T01:22:01.599Z,93.59
2018-04-28T01:23:01.608Z,93.88
2018-04-28T01:24:01.476Z,93.01
2018-04-28T01:25:01.507Z,92.82
2018-04-28T01:26:01.490Z,92.72
2018-04-28T01:27:01.436Z,93.20
2018-04-28T01:28:01.474Z,92.82
2018-04-28T01:29:01.504Z,93.11
2018-04-28T01:30:01.441Z,93.20
2018-04-28T01:31:01.366Z,93.11
2018-04-28T01:32:01.381Z,92.04
2018-04-28T01:33:01.291Z,91.94
2018-04-28T01:34:01.389Z,92.91
2018-04-28T01:35:01.242Z,92.23
2018-04-28T01:36:01.198Z,92.19
2018-04-28T01:37:01.175Z,92.33
2018-04-28T01:38:01.144Z,92.33
2018-04-28T01:39:01.101Z,91.46
2018-04-28T01:40:01.232Z,91.65
2018-04-28T01:41:01.066Z,91.17
2018-04-28T01:42:01.024Z,91.46
2018-04-28T01:43:01.000Z,91.17
2018-04-28T01:44:00.997Z,90.20
2018-04-28T01:45:00.995Z,89.52
2018-04-28T01:46:01.547Z,89.03
2018-04-28T01:47:00.931Z,88.93
2018-04-28T01:48:00.965Z,89.42
2018-04-28T01:49:00.869Z,88.93
2018-04-28T01:50:00.824Z,88.84
2018-04-28T01:51:00.909Z,89.32
2018-04-28T01:52:00.795Z,88.35
2018-04-28T01:53:00.772Z,88.35
2018-04-28T01:54:00.753Z,87.96
2018-04-28T01:55:00.717Z,88.26
2018-04-28T01:56:00.872Z,88.84
2018-04-28T01:57:00.671Z,89.03
2018-04-28T01:58:00.761Z,89.90
2018-04-28T01:59:00.619Z,89.52
2018-04-28T02:00:00.604Z,90.97
2018-04-28T02:01:00.675Z,90.78
2018-04-28T02:02:00.632Z,90.48
2018-04-28T02:03:00.513Z,90.88
2018-04-28T02:04:00.543Z,89.95
2018-04-28T02:05:00.439Z,90.73
2018-04-28T02:06:00.431Z,90.30
2018-04-28T02:07:00.496Z,89.52
2018-04-28T02:08:00.437Z,88.65
2018-04-28T02:09:00.882Z,89.17
2018-04-28T02:10:00.322Z,89.71
2018-04-28T02:11:00.287Z,90.05
2018-04-28T02:12:00.281Z,90.14
2018-04-28T02:13:00.367Z,89.71
2018-04-28T02:14:00.222Z,89.71
2018-04-28T02:15:00.189Z,89.07
2018-04-28T02:16:00.174Z,90.30
2018-04-28T02:17:00.764Z,94.85
2018-04-28T02:18:01.087Z,94.66
2018-04-28T02:19:00.215Z,97.66
2018-04-28T02:20:00.076Z,96.50
2018-04-28T02:21:00.064Z,96.11
2018-04-28T02:22:00.020Z,97.38
2018-04-28T02:23:00.139Z,96.50
2018-04-28T02:24:00.086Z,97.86
2018-04-28T02:24:59.993Z,97.86
2018-04-28T02:25:59.902Z,97.56
2018-04-28T02:26:59.952Z,98.25
2018-04-28T02:28:00.355Z,96.69
2018-04-28T02:29:00.054Z,96.16
2018-04-28T02:29:59.812Z,96.84
2018-04-28T02:30:59.818Z,96.16
2018-04-28T02:31:59.793Z,96.94
2018-04-28T02:33:00.308Z,96.06
2018-04-28T02:33:59.838Z,96.65
2018-04-28T02:34:59.696Z,93.98
2018-04-28T02:35:59.787Z,95.00
2018-04-28T02:36:59.643Z,95.19
2018-04-28T02:37:59.612Z,95.68
2018-04-28T02:38:59.686Z,94.61
2018-04-28T02:39:59.564Z,94.23
2018-04-28T02:40:59.531Z,94.13
2018-04-28T02:41:59.577Z,93.06
2018-04-28T02:42:59.545Z,92.72
2018-04-28T02:43:59.520Z,94.66
2018-04-28T02:44:59.586Z,95.83
2018-04-28T02:45:59.423Z,95.68
2018-04-28T02:46:59.456Z,97.71
2018-04-28T02:47:59.463Z,97.28
2018-04-28T02:48:59.525Z,95.05
2018-04-28T02:49:59.870Z,97.28
2018-04-28T02:50:59.312Z,95.68
2018-04-28T02:51:59.284Z,95.68
2018-04-28T02:52:59.324Z,93.75
2018-04-28T02:53:59.200Z,95.10
2018-04-28T02:54:59.204Z,93.65
2018-04-28T02:55:59.194Z,94.52
2018-04-28T02:56:59.143Z,94.43
2018-04-28T02:57:59.155Z,93.46
2018-04-28T02:58:59.056Z,94.33
2018-04-28T02:59:59.142Z,95.83
2018-04-28T03:00:59.213Z,95.78
2018-04-28T03:01:59.130Z,96.75
2018-04-28T03:02:59.209Z,96.60
2018-04-28T03:03:58.920Z,98.10
2018-04-28T03:04:58.953Z,96.80
2018-04-28T03:05:59.107Z,97.42
2018-04-28T03:06:58.867Z,97.38
2018-04-28T03:07:58.849Z,96.51
2018-04-28T03:08:58.995Z,95.93
2018-04-28T03:09:59.650Z,95.64
2018-04-28T03:10:58.832Z,93.90
2018-04-28T03:11:58.744Z,93.60
2018-04-28T03:12:59.184Z,93.60
2018-04-28T03:13:58.849Z,93.99
2018-04-28T03:14:59.331Z,95.06
2018-04-28T03:15:58.796Z,95.64
2018-04-28T03:16:58.770Z,93.99
2018-04-28T03:17:58.881Z,94.57
2018-04-28T03:18:58.520Z,96.51
2018-04-28T03:19:58.749Z,96.41
2018-04-28T03:20:58.492Z,94.86
2018-04-28T03:21:59.165Z,96.12
2018-04-28T03:22:58.801Z,93.12
2018-04-28T03:23:58.426Z,94.28
2018-04-28T03:24:58.397Z,94.28
2018-04-28T03:25:58.343Z,92.74
2018-04-28T03:26:58.318Z,92.74
2018-04-28T03:27:58.446Z,91.86
2018-04-28T03:28:58.610Z,90.90
2018-04-28T03:29:58.370Z,91.86
2018-04-28T03:30:58.244Z,92.54
2018-04-28T03:31:58.569Z,90.90
2018-04-28T03:32:58.630Z,88.67
2018-04-28T03:33:58.168Z,88.29
2018-04-28T03:34:58.138Z,88.73
2018-04-28T03:35:58.089Z,87.27
2018-04-28T03:36:58.077Z,86.25
2018-04-28T03:37:58.137Z,85.77
2018-04-28T03:38:58.095Z,86.41
2018-04-28T03:39:58.134Z,86.06
2018-04-28T03:40:58.250Z,86.55
2018-04-28T03:41:57.992Z,86.31
2018-04-28T03:42:58.345Z,86.41
2018-04-28T03:43:58.272Z,86.69
2018-04-28T03:44:58.541Z,84.80
2018-04-28T03:45:57.925Z,84.32
2018-04-28T03:46:58.218Z,84.80
2018-04-28T03:47:58.994Z,84.80
2018-04-28T03:48:58.073Z,86.16
2018-04-28T03:49:57.927Z,86.16
2018-04-28T03:50:57.975Z,86.83
2018-04-28T03:51:57.670Z,85.68
2018-04-28T03:52:57.626Z,87.23
2018-04-28T03:53:57.687Z,87.23
2018-04-28T03:54:57.613Z,86.74
2018-04-28T03:55:57.693Z,85.58
2018-04-28T03:56:57.504Z,85.77
2018-04-28T03:57:57.513Z,84.52
2018-04-28T03:58:57.503Z,84.52
2018-04-28T03:59:57.471Z,84.13
2018-04-28T04:00:57.403Z,84.38
2018-04-28T04:01:57.633Z,83.31
2018-04-28T04:02:57.359Z,83.26
2018-04-28T04:03:57.346Z,82.58
2018-04-28T04:04:57.454Z,81.42
2018-04-28T04:05:57.279Z,81.52
2018-04-28T04:06:57.274Z,81.52
2018-04-28T04:07:57.239Z,81.62
2018-04-28T04:08:57.199Z,80.94
2018-04-28T04:09:57.281Z,80.46
2018-04-28T04:10:57.171Z,80.36
2018-04-28T04:11:57.094Z,79.68
2018-04-28T04:12:57.097Z,79.29
2018-04-28T04:13:57.055Z,79.49
2018-04-28T04:14:57.081Z,80.65
2018-04-28T04:15:57.103Z,79.87
2018-04-28T04:16:57.027Z,79.97
2018-04-28T04:17:56.967Z,79.29
2018-04-28T04:18:57.443Z,78.81
2018-04-28T04:19:56.982Z,80.07
2018-04-28T04:20:56.886Z,79.10
2018-04-28T04:21:56.833Z,79.10
2018-04-28T04:22:56.793Z,77.55
2018-04-28T04:23:56.837Z,79.10
2018-04-28T04:24:56.837Z,78.71
2018-04-28T04:25:56.757Z,78.71
2018-04-28T04:26:56.696Z,81.23
2018-04-28T04:27:56.692Z,79.87
2018-04-28T04:28:56.662Z,79.49
2018-04-28T04:29:56.956Z,79.29
2018-04-28T04:30:56.651Z,78.81
2018-04-28T04:31:57.614Z,79.97
2018-04-28T04:32:56.572Z,80.36
2018-04-28T04:33:56.916Z,78.91
2018-04-28T04:34:56.529Z,77.50
2018-04-28T04:35:56.627Z,78.52
2018-04-28T04:36:56.500Z,79.00
2018-04-28T04:37:56.427Z,78.91
2018-04-28T04:38:56.388Z,78.56
2018-04-28T04:39:56.339Z,77.26
2018-04-28T04:40:56.857Z,76.59
2018-04-28T04:41:56.670Z,76.29
2018-04-28T04:42:56.277Z,76.97
2018-04-28T04:43:56.268Z,77.20
2018-04-28T04:44:56.212Z,77.36
2018-04-28T04:45:56.184Z,77.36
2018-04-28T04:46:56.488Z,76.68
2018-04-28T04:47:56.143Z,76.68
2018-04-28T04:48:56.205Z,77.65
2018-04-28T04:49:56.151Z,77.26
2018-04-28T04:50:56.064Z,77.45
2018-04-28T04:51:56.096Z,77.55
2018-04-28T04:52:56.010Z,75.71
2018-04-28T04:53:56.064Z,76.01
2018-04-28T04:54:55.972Z,75.71
2018-04-28T04:55:55.930Z,75.52
2018-04-28T04:56:55.951Z,74.75
2018-04-28T04:57:55.871Z,74.65
2018-04-28T04:58:55.877Z,73.97
2018-04-28T04:59:55.805Z,73.20
2018-04-28T05:00:55.801Z,73.59
2018-04-28T05:01:55.868Z,73.10
2018-04-28T05:02:55.742Z,71.84
2018-04-28T05:03:55.714Z,71.62
2018-04-28T05:04:55.687Z,71.04
2018-04-28T05:05:55.689Z,71.33
2018-04-28T05:06:55.735Z,71.33
2018-04-28T05:07:55.603Z,70.88
2018-04-28T05:08:55.569Z,70.56
2018-04-28T05:09:55.545Z,70.75
2018-04-28T05:10:55.540Z,70.94
2018-04-28T05:11:55.496Z,70.94
2018-04-28T05:12:55.935Z,70.46
2018-04-28T05:13:55.482Z,70.26
2018-04-28T05:14:55.559Z,70.17
2018-04-28T05:15:55.380Z,69.78
2018-04-28T05:16:55.358Z,69.01
2018-04-28T05:17:55.345Z,69.40
2018-04-28T05:18:55.598Z,68.72
2018-04-28T05:19:55.287Z,68.14
2018-04-28T05:20:55.296Z,68.14
2018-04-28T05:21:55.221Z,68.04
2018-04-28T05:22:55.197Z,68.43
2018-04-28T05:23:55.271Z,68.43
2018-04-28T05:24:55.201Z,67.27
2018-04-28T05:25:55.134Z,67.36
2018-04-28T05:26:55.091Z,67.46
2018-04-28T05:27:55.076Z,67.46
2018-04-28T05:28:55.066Z,67.75
2018-04-28T05:29:55.065Z,66.98
2018-04-28T05:30:54.973Z,66.59
2018-04-28T05:31:54.992Z,67.17
2018-04-28T05:32:54.928Z,66.40
2018-04-28T05:33:54.889Z,65.92
2018-04-28T05:34:54.972Z,66.01
2018-04-28T05:35:54.974Z,66.01
2018-04-28T05:36:54.820Z,65.72
2018-04-28T05:37:54.794Z,65.43
2018-04-28T05:38:54.780Z,65.43
2018-04-28T05:39:54.834Z,65.14
2018-04-28T05:40:54.748Z,64.66
2018-04-28T05:41:54.676Z,64.76
2018-04-28T05:42:54.646Z,64.76
2018-04-28T05:43:54.615Z,64.56
2018-04-28T05:44:54.603Z,64.47
2018-04-28T05:45:54.616Z,63.98
2018-04-28T05:46:54.569Z,64.56
2018-04-28T05:47:54.522Z,63.98
2018-04-28T05:48:54.502Z,63.60
2018-04-28T05:49:54.464Z,63.98
2018-04-28T05:50:54.486Z,63.31
2018-04-28T05:51:54.510Z,62.92
2018-04-28T05:52:54.378Z,62.73
2018-04-28T05:53:54.364Z,62.82
2018-04-28T05:54:54.341Z,63.11
2018-04-28T05:55:54.304Z,63.66
2018-04-28T05:56:54.290Z,63.60
2018-04-28T05:57:54.531Z,63.31
2018-04-28T05:58:54.252Z,63.69
2018-04-28T05:59:54.179Z,63.66
2018-04-28T06:00:54.177Z,63.95
2018-04-28T06:01:54.146Z,64.14
2018-04-28T06:02:54.477Z,63.28
2018-04-28T06:03:54.087Z,62.70
2018-04-28T06:04:54.074Z,62.89
2018-04-28T06:05:54.048Z,62.12
2018-04-28T06:06:54.031Z,62.60
2018-04-28T06:07:54.118Z,61.76
2018-04-28T06:08:53.948Z,61.73
2018-04-28T06:09:53.935Z,61.66
2018-04-28T06:10:53.925Z,61.25
2018-04-28T06:11:53.861Z,61.08
2018-04-28T06:12:53.933Z,60.96
2018-04-28T06:13:53.821Z,61.25
2018-04-28T06:14:53.884Z,60.79
2018-04-28T06:15:53.743Z,60.47
2018-04-28T06:16:53.723Z,60.79
2018-04-28T06:17:53.990Z,60.67
2018-04-28T06:18:53.741Z,60.28
2018-04-28T06:19:53.701Z,60.18
2018-04-28T06:20:53.617Z,60.41
2018-04-28T06:21:53.633Z,60.50
2018-04-28T06:22:53.652Z,59.83
2018-04-28T06:23:53.680Z,60.21
2018-04-28T06:24:53.522Z,59.89
2018-04-28T06:25:53.570Z,59.41
2018-04-28T06:26:53.471Z,59.51
2018-04-28T06:27:53.415Z,59.83
2018-04-28T06:28:53.398Z,59.70
2018-04-28T06:29:53.492Z,59.22
2018-04-28T06:30:53.349Z,58.95
2018-04-28T06:31:53.327Z,59.15
2018-04-28T06:32:53.298Z,59.31
2018-04-28T06:33:53.284Z,59.15
2018-04-28T06:34:53.235Z,58.76
2018-04-28T06:35:53.410Z,58.64
2018-04-28T06:36:53.342Z,59.02
2018-04-28T06:37:53.180Z,58.54
2018-04-28T06:38:53.135Z,58.15
2018-04-28T06:39:53.148Z,58.35
2018-04-28T06:40:53.160Z,58.25
2018-04-28T06:41:53.042Z,58.54
2018-04-28T06:42:53.027Z,58.54
2018-04-28T06:43:52.998Z,57.99
2018-04-28T06:44:53.032Z,57.87
2018-04-28T06:45:53.063Z,57.38
2018-04-28T06:46:52.902Z,57.99
2018-04-28T06:47:53.035Z,57.89
2018-04-28T06:48:52.839Z,57.31
2018-04-28T06:49:52.880Z,57.51
2018-04-28T06:50:52.854Z,57.67
2018-04-28T06:51:52.884Z,57.48
2018-04-28T06:52:52.800Z,57.51
2018-04-28T06:53:52.744Z,57.60
2018-04-28T06:54:52.682Z,57.41
2018-04-28T06:55:52.652Z,57.21
2018-04-28T06:56:52.741Z,56.93
2018-04-28T06:57:52.646Z,57.51
2018-04-28T06:58:52.599Z,57.21
2018-04-28T06:59:52.557Z,56.83
2018-04-28T07:00:52.513Z,56.63
2018-04-28T07:01:52.559Z,56.83
2018-04-28T07:02:52.463Z,56.54
2018-04-28T07:03:52.440Z,55.87
2018-04-28T07:04:52.409Z,56.45
2018-04-28T07:05:52.391Z,55.87
2018-04-28T07:06:52.370Z,55.77
2018-04-28T07:07:52.379Z,55.57
2018-04-28T07:08:52.317Z,55.67
2018-04-28T07:09:52.276Z,55.38
2018-04-28T07:10:52.353Z,55.19
2018-04-28T07:11:52.220Z,55.29
2018-04-28T07:12:52.245Z,55.38
2018-04-28T07:13:52.191Z,55.19
2018-04-28T07:14:52.191Z,55.67
2018-04-28T07:15:52.106Z,55.19
2018-04-28T07:16:52.111Z,54.80
2018-04-28T07:17:52.117Z,55.09
2018-04-28T07:18:52.054Z,55.09
2018-04-28T07:19:52.023Z,54.71
2018-04-28T07:20:51.982Z,54.90
2018-04-28T07:21:51.962Z,54.80
2018-04-28T07:22:51.925Z,54.22
2018-04-28T07:23:51.998Z,54.51
2018-04-28T07:24:51.866Z,54.25
2018-04-28T07:25:51.844Z,54.35
2018-04-28T07:26:51.826Z,54.71
2018-04-28T07:27:51.824Z,54.71
2018-04-28T07:28:51.772Z,53.74
2018-04-28T07:29:51.830Z,54.03
2018-04-28T07:30:51.769Z,54.22
2018-04-28T07:31:51.689Z,54.13
2018-04-28T07:32:51.662Z,53.74
2018-04-28T07:33:51.615Z,53.93
2018-04-28T07:34:51.707Z,53.64
2018-04-28T07:35:51.566Z,53.35
2018-04-28T07:36:51.554Z,52.97
2018-04-28T07:37:51.533Z,53.06
2018-04-28T07:38:51.538Z,53.19
2018-04-28T07:39:51.469Z,52.87
2018-04-28T07:40:51.487Z,52.67
2018-04-28T07:41:51.409Z,52.39
2018-04-28T07:42:51.396Z,52.09
2018-04-28T07:43:51.396Z,52.58
2018-04-28T07:44:51.321Z,52.00
2018-04-28T07:45:51.301Z,52.19
2018-04-28T07:46:51.372Z,51.64
2018-04-28T07:47:51.262Z,51.64
2018-04-28T07:48:51.204Z,51.03
2018-04-28T07:49:51.174Z,51.03
2018-04-28T07:50:51.173Z,50.86
2018-04-28T07:51:51.198Z,51.15
2018-04-28T07:52:51.100Z,50.76
2018-04-28T07:53:51.084Z,50.18
2018-04-28T07:54:51.048Z,50.28
2018-04-28T07:55:51.037Z,49.99
2018-04-28T07:56:50.996Z,50.09
2018-04-28T07:57:51.088Z,50.28
2018-04-28T07:58:50.959Z,49.49
2018-04-28T07:59:50.925Z,48.71
2018-04-28T08:00:50.926Z,49.19
2018-04-28T08:01:50.862Z,48.81
2018-04-28T08:02:50.973Z,48.16
2018-04-28T08:03:50.848Z,48.64
2018-04-28T08:04:50.785Z,48.81
2018-04-28T08:05:50.764Z,48.13
2018-04-28T08:06:50.746Z,48.42
2018-04-28T08:07:50.689Z,47.86
2018-04-28T08:08:50.766Z,48.03
2018-04-28T08:09:50.638Z,47.16
2018-04-28T08:10:50.610Z,47.65
2018-04-28T08:11:50.603Z,47.36
2018-04-28T08:12:50.582Z,47.28
2018-04-28T08:13:50.654Z,48.03
2018-04-28T08:14:50.501Z,47.65
2018-04-28T08:15:50.486Z,48.52
2018-04-28T08:16:50.465Z,48.61
2018-04-28T08:17:50.421Z,48.03
2018-04-28T08:18:50.408Z,48.90
2018-04-28T08:19:50.468Z,48.71
2018-04-28T08:20:50.427Z,48.71
2018-04-28T08:21:50.311Z,48.90
2018-04-28T08:22:50.292Z,48.61
2018-04-28T08:23:50.262Z,49.19
2018-04-28T08:24:50.356Z,49.29
2018-04-28T08:25:50.218Z,49.49
2018-04-28T08:26:50.183Z,49.19
2018-04-28T08:27:50.199Z,50.07
2018-04-28T08:28:50.139Z,49.87
2018-04-28T08:29:50.211Z,49.87
2018-04-28T08:30:50.080Z,49.77
2018-04-28T08:31:50.042Z,49.77
2018-04-28T08:32:50.021Z,50.26
2018-04-28T08:33:49.987Z,50.26
2018-04-28T08:34:50.022Z,50.26
2018-04-28T08:35:50.009Z,50.16
2018-04-28T08:36:49.997Z,50.16
2018-04-28T08:37:49.902Z,50.16
2018-04-28T08:38:49.856Z,50.26
2018-04-28T08:39:49.833Z,50.28
2018-04-28T08:40:49.857Z,50.28
2018-04-28T08:41:49.799Z,50.57
2018-04-28T08:42:49.743Z,50.28
2018-04-28T08:43:49.733Z,50.48
2018-04-28T08:44:49.695Z,50.18
2018-04-28T08:45:49.771Z,50.38
2018-04-28T08:46:49.649Z,50.38
2018-04-28T08:47:49.605Z,50.76
2018-04-28T08:48:49.579Z,50.76
2018-04-28T08:49:49.549Z,50.67
2018-04-28T08:50:49.634Z,50.76
2018-04-28T08:51:49.507Z,50.76
2018-04-28T08:52:49.476Z,50.96
2018-04-28T08:53:49.441Z,51.23
2018-04-28T08:54:49.417Z,51.64
2018-04-28T08:55:49.391Z,51.61
2018-04-28T08:56:49.446Z,52.00
2018-04-28T08:57:49.349Z,51.90
2018-04-28T08:58:49.307Z,51.54
2018-04-28T08:59:49.304Z,51.03
2018-04-28T09:00:49.254Z,51.71
2018-04-28T09:01:49.231Z,51.71
2018-04-28T09:02:49.252Z,52.00
2018-04-28T09:03:49.267Z,51.71
2018-04-28T09:04:49.194Z,51.81
2018-04-28T09:05:49.112Z,51.81
2018-04-28T09:06:49.094Z,51.71
2018-04-28T09:07:49.074Z,51.42
2018-04-28T09:08:49.083Z,51.51
2018-04-28T09:09:49.021Z,51.93
2018-04-28T09:10:48.999Z,51.64
2018-04-28T09:11:48.955Z,51.64
2018-04-28T09:12:48.932Z,52.00
2018-04-28T09:13:48.999Z,51.81
2018-04-28T09:14:48.885Z,52.19
2018-04-28T09:15:48.854Z,52.58
2018-04-28T09:16:48.816Z,52.09
2018-04-28T09:17:48.820Z,52.19
2018-04-28T09:18:48.820Z,52.09
2018-04-28T09:19:48.742Z,51.90
2018-04-28T09:20:48.738Z,52.58
2018-04-28T09:21:48.681Z,52.67
2018-04-28T09:22:48.676Z,52.67
2018-04-28T09:23:48.744Z,52.67
2018-04-28T09:24:48.618Z,52.77
2018-04-28T09:27:48.524Z,53.06
2018-04-28T09:28:48.605Z,53.16
2018-04-28T09:29:48.465Z,52.87
2018-04-28T09:30:48.434Z,53.06
2018-04-28T09:31:48.418Z,52.67
2018-04-28T09:32:48.403Z,52.87
2018-04-28T09:33:48.350Z,53.06
2018-04-28T09:34:48.460Z,52.97
2018-04-28T09:35:48.309Z,53.16
2018-04-28T09:36:48.281Z,53.25
2018-04-28T09:37:48.256Z,53.93
2018-04-28T09:38:48.245Z,53.55
2018-04-28T09:39:48.192Z,54.22
2018-04-28T09:40:48.268Z,54.03
2018-04-28T09:41:48.149Z,53.93
2018-04-28T09:42:48.128Z,53.83
2018-04-28T09:43:48.092Z,54.80
2018-04-28T09:44:48.084Z,54.51
2018-04-28T09:45:48.074Z,54.71
2018-04-28T09:46:48.010Z,54.61
2018-04-28T09:47:48.062Z,54.51
2018-04-28T09:48:47.959Z,54.61
2018-04-28T09:49:47.948Z,54.61
2018-04-28T09:50:47.967Z,53.83
2018-04-28T09:51:47.873Z,54.03
2018-04-28T09:52:47.852Z,54.22
2018-04-28T09:53:47.825Z,54.13
2018-04-28T09:54:47.792Z,54.13
2018-04-28T09:55:47.905Z,54.13
2018-04-28T09:56:47.743Z,54.03
2018-04-28T09:57:47.696Z,53.74
2018-04-28T09:58:47.696Z,54.13
2018-04-28T09:59:47.646Z,53.74
2018-04-28T10:00:47.690Z,54.03
2018-04-28T10:01:47.615Z,53.83
2018-04-28T10:02:47.591Z,54.32
2018-04-28T10:03:47.536Z,53.93
2018-04-28T10:04:47.533Z,53.93
2018-04-28T10:05:47.555Z,54.71
2018-04-28T10:06:47.480Z,54.61
2018-04-28T10:07:47.454Z,54.61
2018-04-28T10:08:47.397Z,53.83
2018-04-28T10:09:47.458Z,53.83
2018-04-28T10:10:47.368Z,53.93
2018-04-28T10:11:47.385Z,53.93
2018-04-28T10:12:47.400Z,54.13
2018-04-28T10:13:47.274Z,54.61
2018-04-28T10:14:47.265Z,54.71
2018-04-28T10:15:47.210Z,54.61
2018-04-28T10:16:47.196Z,54.61
2018-04-28T10:17:47.211Z,54.41
2018-04-28T10:18:47.132Z,54.63
2018-04-28T10:19:47.111Z,54.44
2018-04-28T10:20:47.070Z,54.61
2018-04-28T10:21:47.042Z,54.51
2018-04-28T10:22:47.084Z,54.22
2018-04-28T10:23:47.015Z,54.44
2018-04-28T10:24:46.998Z,54.15
2018-04-28T10:25:46.932Z,54.35
2018-04-28T10:26:46.921Z,54.22
2018-04-28T10:27:46.949Z,54.44
2018-04-28T10:28:46.869Z,54.53
2018-04-28T10:29:46.833Z,54.53
2018-04-28T10:30:46.827Z,54.80
2018-04-28T10:31:46.801Z,54.80
2018-04-28T10:32:46.817Z,54.63
2018-04-28T10:33:46.717Z,54.63
2018-04-28T10:34:46.705Z,54.44
2018-04-28T10:35:46.675Z,54.63
2018-04-28T10:36:46.652Z,55.29
2018-04-28T10:37:46.692Z,55.38
2018-04-28T10:38:46.593Z,55.57
2018-04-28T10:39:46.565Z,55.57
2018-04-28T10:40:46.551Z,55.41
2018-04-28T10:41:46.499Z,55.57
2018-04-28T10:42:46.601Z,55.38
2018-04-28T10:43:46.456Z,55.41
2018-04-28T10:44:46.434Z,55.41
2018-04-28T10:45:46.399Z,55.38
2018-04-28T10:46:46.370Z,55.41
2018-04-28T10:47:46.344Z,55.60
2018-04-28T10:48:46.368Z,55.51
2018-04-28T10:49:46.280Z,55.51
2018-04-28T10:50:46.260Z,55.02
2018-04-28T10:51:46.250Z,55.21
2018-04-28T10:52:46.208Z,54.83
2018-04-28T10:53:46.334Z,55.21
2018-04-28T10:54:46.180Z,55.31
2018-04-28T10:55:46.137Z,55.02
2018-04-28T10:56:46.140Z,55.31
2018-04-28T10:57:46.077Z,55.60
2018-04-28T10:58:46.157Z,55.60
2018-04-28T10:59:46.035Z,55.60
2018-04-28T11:00:45.996Z,55.41
2018-04-28T11:01:45.961Z,55.60
2018-04-28T11:02:45.948Z,55.70
2018-04-28T11:03:45.958Z,55.60
2018-04-28T11:04:45.894Z,55.31
2018-04-28T11:05:45.853Z,55.31
2018-04-28T11:06:45.839Z,55.51
2018-04-28T11:07:45.801Z,55.60
2018-04-28T11:08:45.813Z,55.60
2018-04-28T11:09:45.751Z,55.60
2018-04-28T11:10:45.715Z,55.89
2018-04-28T11:11:45.779Z,55.70
2018-04-28T11:12:45.661Z,55.60
2018-04-28T11:13:45.743Z,55.99
2018-04-28T11:14:45.605Z,55.70
2018-04-28T11:15:45.602Z,55.41
2018-04-28T11:16:45.555Z,55.51
2018-04-28T11:17:45.527Z,55.60
2018-04-28T11:18:45.616Z,55.60
2018-04-28T11:19:45.510Z,55.70
2018-04-28T11:20:45.480Z,55.79
2018-04-28T11:21:45.424Z,55.79
2018-04-28T11:22:45.422Z,55.70
2018-04-28T11:23:45.396Z,55.79
2018-04-28T11:24:45.392Z,55.89
2018-04-28T11:25:45.429Z,55.79
2018-04-28T11:26:45.293Z,55.89
2018-04-28T11:27:45.266Z,55.70
2018-04-28T11:28:45.229Z,55.70
2018-04-28T11:29:45.305Z,55.89
2018-04-28T11:30:45.176Z,55.63
2018-04-28T11:31:45.246Z,55.89
2018-04-28T11:32:45.126Z,55.99
2018-04-28T11:33:45.112Z,55.92
2018-04-28T11:34:45.216Z,56.11
2018-04-28T11:35:45.057Z,56.21
2018-04-28T11:36:45.073Z,56.21
2018-04-28T11:37:44.997Z,56.11
2018-04-28T11:38:44.966Z,56.09
2018-04-28T11:39:44.978Z,55.99
2018-04-28T11:40:44.898Z,56.30
2018-04-28T11:41:44.894Z,56.50
2018-04-28T11:42:44.867Z,56.30
2018-04-28T11:43:44.873Z,56.79
2018-04-28T11:44:44.907Z,56.88
2018-04-28T11:45:44.764Z,56.70
2018-04-28T11:46:44.747Z,56.60
2018-04-28T11:47:44.741Z,56.60
2018-04-28T11:48:44.726Z,57.28
2018-04-28T11:49:44.809Z,57.08
2018-04-28T11:50:44.625Z,56.62
2018-04-28T11:51:44.603Z,56.79
2018-04-28T11:52:44.575Z,56.72
2018-04-28T11:53:44.561Z,56.82
2018-04-28T11:54:44.581Z,56.82
2018-04-28T11:55:44.552Z,57.20
2018-04-28T11:56:44.465Z,57.11
2018-04-28T11:57:44.452Z,57.11
2018-04-28T11:58:44.434Z,57.20
2018-04-28T11:59:44.387Z,57.30
2018-04-28T12:00:44.750Z,57.30
2018-04-28T12:01:44.395Z,56.92
2018-04-28T12:02:44.382Z,57.79
2018-04-28T12:03:44.277Z,58.01
2018-04-28T12:04:44.354Z,57.91
2018-04-28T12:05:44.323Z,58.59
2018-04-28T12:06:44.324Z,59.75
2018-04-28T12:07:44.169Z,60.43
2018-04-28T12:08:44.139Z,60.43
2018-04-28T12:09:44.089Z,60.82
2018-04-28T12:10:44.114Z,61.88
2018-04-28T12:11:44.192Z,62.46
2018-04-28T12:12:44.082Z,62.56
2018-04-28T12:13:44.026Z,63.53
2018-04-28T12:14:43.984Z,65.01
2018-04-28T12:15:43.973Z,68.30
2018-04-28T12:16:44.010Z,70.05
2018-04-28T12:17:43.925Z,71.70
2018-04-28T12:18:43.888Z,72.31
2018-04-28T12:19:43.873Z,77.45
2018-04-28T12:20:43.976Z,87.87
2018-04-28T12:21:43.857Z,91.94
2018-04-28T12:22:43.777Z,92.04
2018-04-28T12:23:43.774Z,93.40
2018-04-28T12:24:43.814Z,93.30
2018-04-28T12:25:43.710Z,89.32
2018-04-28T12:26:43.725Z,87.77
2018-04-28T12:27:43.666Z,92.04
2018-04-28T12:28:43.614Z,91.11
2018-04-28T12:29:43.617Z,91.50
2018-04-28T12:30:43.570Z,91.50
2018-04-28T12:31:43.533Z,97.23
2018-04-28T12:32:43.619Z,98.44
2018-04-28T12:33:43.490Z,99.80
2018-04-28T12:34:43.469Z,99.99
2018-04-28T12:35:43.423Z,99.99
2018-04-28T12:36:43.427Z,99.99
2018-04-28T12:37:43.384Z,99.99
2018-04-28T12:38:43.462Z,99.99
2018-04-28T12:39:43.361Z,99.99
2018-04-28T12:40:43.304Z,99.99
2018-04-28T12:41:43.292Z,99.99
2018-04-28T12:42:43.306Z,99.99
2018-04-28T12:43:43.345Z,99.99
2018-04-28T12:44:43.205Z,99.99
2018-04-28T12:45:43.199Z,99.99
2018-04-28T12:46:43.160Z,99.99
2018-04-28T12:47:43.138Z,99.99
2018-04-28T12:48:43.152Z,99.99
2018-04-28T12:49:43.088Z,99.99
2018-04-28T12:50:43.096Z,99.99
2018-04-28T12:51:43.037Z,99.99
2018-04-28T12:52:43.014Z,99.99
2018-04-28T12:53:43.029Z,99.99